Time;durP1;ratioP1;P1;durP2;ratioP2;P2;SDS_P1;SDS_P2;PMS_P1;PMS_P2;Temp;Humidity;BMP_temperature;BMP_pressure;BME280_temperature;BME280_humidity;BME280_pressure;Samples;Min_cycle;Max_cycle;Signal;HPM_P1;HPM_P2
2021/03/17 00:00:43;;;;;;;35.50;19.20;;;;;;;;;;4973681;28;20180;-79
2021/03/17 00:03:09;;;;;;;30.92;17.10;;;;;;;;;;4973745;28;20186;-80
2021/03/17 00:05:36;;;;;;;28.75;16.40;;;;;;;;;;4973283;28;20294;-77
2021/03/17 00:08:02;;;;;;;30.52;16.90;;;;;;;;;;4973592;28;20211;-77
2021/03/17 00:10:30;;;;;;;28.02;17.10;;;;;;;;;;4975911;28;20586;-79
2021/03/17 00:12:57;;;;;;;31.67;16.02;;;;;;;;;;4977442;28;20243;-77
2021/03/17 00:15:23;;;;;;;30.65;18.40;;;;;;;;;;4977013;28;20228;-76
2021/03/17 00:17:49;;;;;;;33.60;18.10;;;;;;;;;;4976012;28;20181;-77
2021/03/17 00:20:16;;;;;;;35.53;18.40;;;;;;;;;;4977194;28;20693;-75
2021/03/17 00:22:42;;;;;;;33.08;17.92;;;;;;;;;;4977112;28;20416;-78
2021/03/17 00:25:08;;;;;;;30.00;18.38;;;;;;;;;;4975562;28;20196;-74
2021/03/17 00:27:34;;;;;;;35.53;17.95;;;;;;;;;;4977131;28;20234;-78
2021/03/17 00:30:01;;;;;;;36.83;20.90;;;;;;;;;;4977141;28;20177;-76
2021/03/17 00:32:27;;;;;;;37.97;18.33;;;;;;;;;;4976940;28;20184;-78
2021/03/17 00:34:53;;;;;;;34.17;18.95;;;;;;;;;;4976705;28;20176;-75
2021/03/17 00:37:19;;;;;;;34.08;16.73;;;;;;;;;;4977042;28;20298;-77
2021/03/17 00:39:45;;;;;;;30.95;18.00;;;;;;;;;;4977003;28;20203;-75
2021/03/17 00:45:15;;;;;;;32.28;17.70;;;;;;;;;;4976471;28;20414;-79
2021/03/17 00:47:41;;;;;;;31.83;17.20;;;;;;;;;;4976690;28;20272;-75
2021/03/17 00:50:08;;;;;;;26.35;15.02;;;;;;;;;;4976609;28;20184;-78
2021/03/17 00:52:34;;;;;;;31.90;18.27;;;;;;;;;;4976549;28;20179;-78
2021/03/17 00:55:00;;;;;;;27.00;17.00;;;;;;;;;;4976244;28;20274;-78
2021/03/17 00:57:26;;;;;;;35.30;18.60;;;;;;;;;;4975340;28;20428;-79
2021/03/17 00:59:52;;;;;;;32.10;18.45;;;;;;;;;;4975128;28;20552;-78
2021/03/17 01:02:18;;;;;;;33.22;19.25;;;;;;;;;;4976453;28;20176;-77
2021/03/17 01:07:47;;;;;;;35.28;19.35;;;;;;;;;;4976360;28;20489;-78
2021/03/17 01:10:15;;;;;;;37.55;18.45;;;;;;;;;;4976413;28;20542;-79
2021/03/17 01:12:41;;;;;;;37.88;19.17;;;;;;;;;;4975975;28;20176;-78
2021/03/17 01:15:09;;;;;;;35.60;21.20;;;;;;;;;;4975962;28;20203;-78
2021/03/17 01:17:35;;;;;;;33.95;21.10;;;;;;;;;;4976431;28;20271;-78
2021/03/17 01:20:01;;;;;;;37.20;20.15;;;;;;;;;;4976035;28;20219;-78
2021/03/17 01:22:27;;;;;;;32.75;20.80;;;;;;;;;;4976088;28;20263;-78
2021/03/17 01:24:53;;;;;;;30.20;18.30;;;;;;;;;;4975691;28;20259;-77
2021/03/17 01:27:19;;;;;;;37.73;19.67;;;;;;;;;;4976088;28;20991;-78
2021/03/17 01:29:45;;;;;;;28.43;17.50;;;;;;;;;;4975892;28;20482;-79
2021/03/17 01:32:11;;;;;;;36.03;20.60;;;;;;;;;;4958735;28;20427;-76
2021/03/17 01:34:37;;;;;;;33.80;19.80;;;;;;;;;;4975613;28;20420;-78
2021/03/17 01:37:03;;;;;;;31.73;19.38;;;;;;;;;;4975579;28;20436;-76
2021/03/17 01:39:29;;;;;;;30.35;19.15;;;;;;;;;;4975964;28;20271;-78
2021/03/17 01:41:55;;;;;;;30.70;20.43;;;;;;;;;;4975967;28;20526;-75
2021/03/17 01:44:21;;;;;;;34.33;20.33;;;;;;;;;;4975693;28;20424;-79
2021/03/17 01:46:47;;;;;;;35.75;20.85;;;;;;;;;;4974927;28;20962;-78
2021/03/17 01:49:13;;;;;;;29.00;19.50;;;;;;;;;;4975354;28;20231;-79
2021/03/17 01:51:39;;;;;;;36.25;22.27;;;;;;;;;;4975673;28;20570;-77
2021/03/17 01:54:05;;;;;;;32.50;22.40;;;;;;;;;;4975658;28;20263;-77
2021/03/17 01:56:32;;;;;;;38.20;23.17;;;;;;;;;;4975139;28;20456;-79
2021/03/17 01:58:58;;;;;;;38.45;24.15;;;;;;;;;;4975366;28;20182;-78
2021/03/17 02:01:23;;;;;;;42.28;23.70;;;;;;;;;;4975326;28;20282;-77
2021/03/17 02:03:49;;;;;;;42.17;26.40;;;;;;;;;;4975161;28;20591;-75
2021/03/17 02:06:15;;;;;;;42.05;25.23;;;;;;;;;;4975112;28;20487;-76
2021/03/17 02:08:43;;;;;;;39.80;24.37;;;;;;;;;;4975265;28;20203;-78
2021/03/17 02:11:10;;;;;;;36.55;23.48;;;;;;;;;;4975325;28;20418;-79
2021/03/17 02:13:50;;;;;;;43.50;23.85;;;;;;;;;;4975035;28;20179;-79
2021/03/17 02:16:23;;;;;;;39.38;21.95;;;;;;;;;;4974799;28;20215;-78
2021/03/17 02:19:02;;;;;;;36.97;21.63;;;;;;;;;;4975203;28;20183;-79
2021/03/17 02:21:37;;;;;;;35.10;20.00;;;;;;;;;;4975016;28;20190;-77
2021/03/17 02:24:06;;;;;;;34.55;17.65;;;;;;;;;;4974881;28;20180;-76
2021/03/17 02:26:41;;;;;;;32.92;18.75;;;;;;;;;;4974437;28;20200;-76
2021/03/17 02:29:26;;;;;;;24.77;15.45;;;;;;;;;;4974948;28;20306;-78
2021/03/17 02:31:52;;;;;;;27.98;15.02;;;;;;;;;;4974472;28;20174;-78
2021/03/17 02:34:25;;;;;;;21.47;13.63;;;;;;;;;;4973343;28;20668;-79
2021/03/17 02:36:53;;;;;;;19.90;11.82;;;;;;;;;;4974391;28;20548;-77
2021/03/17 02:39:26;;;;;;;21.52;11.32;;;;;;;;;;4974639;28;20184;-79
2021/03/17 02:42:11;;;;;;;11.60;8.95;;;;;;;;;;4974757;28;20592;-76
2021/03/17 02:44:44;;;;;;;10.90;7.88;;;;;;;;;;4972972;28;20176;-76
2021/03/17 02:47:10;;;;;;;11.95;8.15;;;;;;;;;;4974581;28;20249;-77
2021/03/17 02:49:37;;;;;;;10.43;7.30;;;;;;;;;;4974394;28;20292;-76
2021/03/17 02:52:04;;;;;;;11.77;7.95;;;;;;;;;;4974506;28;20508;-76
2021/03/17 02:54:31;;;;;;;11.43;7.95;;;;;;;;;;4973003;28;20324;-79
2021/03/17 02:57:09;;;;;;;14.57;10.07;;;;;;;;;;4974378;28;20195;-77
2021/03/17 02:59:37;;;;;;;15.98;10.05;;;;;;;;;;4974334;28;20175;-78
2021/03/17 03:02:04;;;;;;;11.68;9.55;;;;;;;;;;4974290;28;20183;-78
2021/03/17 03:04:30;;;;;;;15.80;11.65;;;;;;;;;;4974209;28;20211;-77
2021/03/17 03:06:57;;;;;;;16.80;12.32;;;;;;;;;;4974271;28;20199;-78
2021/03/17 03:09:25;;;;;;;17.63;12.38;;;;;;;;;;4974256;28;20178;-79
2021/03/17 03:11:53;;;;;;;17.17;11.38;;;;;;;;;;4974053;28;20176;-78
2021/03/17 03:14:20;;;;;;;17.40;11.20;;;;;;;;;;4974205;28;20176;-77
2021/03/17 03:16:47;;;;;;;20.10;10.88;;;;;;;;;;4973821;28;20227;-78
2021/03/17 03:19:14;;;;;;;22.38;12.10;;;;;;;;;;4974164;28;20227;-77
2021/03/17 03:21:40;;;;;;;19.25;11.30;;;;;;;;;;4974018;28;20547;-78
2021/03/17 03:24:06;;;;;;;13.98;9.13;;;;;;;;;;4974156;28;20549;-76
2021/03/17 03:26:33;;;;;;;13.50;8.80;;;;;;;;;;4972340;28;20565;-78
2021/03/17 03:29:00;;;;;;;11.32;7.63;;;;;;;;;;4972605;28;20275;-78
2021/03/17 03:31:27;;;;;;;10.45;8.20;;;;;;;;;;4974042;28;20577;-78
2021/03/17 03:33:53;;;;;;;10.98;7.80;;;;;;;;;;4973920;28;20223;-77
2021/03/17 03:36:19;;;;;;;10.65;8.00;;;;;;;;;;4973353;28;20680;-77
2021/03/17 03:38:45;;;;;;;13.10;8.70;;;;;;;;;;4973978;28;20212;-78
2021/03/17 03:41:11;;;;;;;12.00;8.00;;;;;;;;;;4973930;28;20647;-79
2021/03/17 03:43:37;;;;;;;13.93;8.32;;;;;;;;;;4974526;28;20761;-78
2021/03/17 03:46:04;;;;;;;11.88;8.63;;;;;;;;;;4977471;28;20613;-79
2021/03/17 03:48:30;;;;;;;12.50;8.23;;;;;;;;;;4976493;28;20246;-79
2021/03/17 03:50:56;;;;;;;13.82;8.27;;;;;;;;;;4977821;28;20652;-79
2021/03/17 03:53:31;;;;;;;11.27;8.50;;;;;;;;;;4977744;28;20183;-78
2021/03/17 03:56:14;;;;;;;12.23;8.10;;;;;;;;;;4977158;28;20253;-78
2021/03/17 03:58:47;;;;;;;12.57;10.07;;;;;;;;;;4976428;28;20574;-77
2021/03/17 04:01:31;;;;;;;10.40;7.50;;;;;;;;;;4976479;28;20259;-79
2021/03/17 04:04:01;;;;;;;13.52;8.70;;;;;;;;;;4977413;28;20184;-77
2021/03/17 04:06:27;;;;;;;12.63;9.30;;;;;;;;;;4976146;28;20267;-79
2021/03/17 04:08:56;;;;;;;12.32;9.20;;;;;;;;;;4977331;28;20211;-80
2021/03/17 04:11:22;;;;;;;11.95;9.48;;;;;;;;;;4976110;28;20186;-79
2021/03/17 04:13:49;;;;;;;17.20;10.48;;;;;;;;;;4977202;28;20176;-78
2021/03/17 04:16:16;;;;;;;12.45;9.85;;;;;;;;;;4976853;28;20243;-79
2021/03/17 04:18:44;;;;;;;14.02;10.10;;;;;;;;;;4977254;28;20245;-77
2021/03/17 04:21:13;;;;;;;15.93;11.10;;;;;;;;;;4977297;28;20180;-80
2021/03/17 04:23:40;;;;;;;14.50;11.40;;;;;;;;;;4977427;28;20537;-78
2021/03/17 04:26:06;;;;;;;13.80;12.32;;;;;;;;;;4976706;28;20217;-78
2021/03/17 04:28:34;;;;;;;14.13;10.95;;;;;;;;;;4977185;28;20748;-76
2021/03/17 04:31:01;;;;;;;14.05;12.05;;;;;;;;;;4975811;28;20207;-79
2021/03/17 04:33:28;;;;;;;13.43;11.02;;;;;;;;;;4975821;28;20495;-79
2021/03/17 04:35:56;;;;;;;17.08;11.77;;;;;;;;;;4976499;28;20574;-78
2021/03/17 04:38:23;;;;;;;15.10;10.45;;;;;;;;;;4976877;28;20191;-78
2021/03/17 04:40:50;;;;;;;13.70;10.77;;;;;;;;;;4976927;28;20180;-77
2021/03/17 04:43:16;;;;;;;12.00;9.88;;;;;;;;;;4975653;28;20206;-78
2021/03/17 04:45:43;;;;;;;14.63;11.77;;;;;;;;;;4975191;28;20215;-78
2021/03/17 04:48:10;;;;;;;11.82;9.50;;;;;;;;;;4976713;28;20278;-78
2021/03/17 04:50:38;;;;;;;13.85;10.00;;;;;;;;;;4976483;28;20208;-78
2021/03/17 04:53:04;;;;;;;15.52;10.43;;;;;;;;;;4976793;28;20178;-79
2021/03/17 04:55:30;;;;;;;13.23;10.32;;;;;;;;;;4975544;28;20203;-78
2021/03/17 04:57:57;;;;;;;13.90;10.30;;;;;;;;;;4976703;28;20374;-77
2021/03/17 05:00:24;;;;;;;12.25;8.57;;;;;;;;;;4976303;28;20180;-77
2021/03/17 05:03:00;;;;;;;11.32;9.10;;;;;;;;;;4976313;28;20182;-79
2021/03/17 05:05:28;;;;;;;11.65;8.88;;;;;;;;;;4976052;28;20273;-78
2021/03/17 05:07:54;;;;;;;10.63;8.43;;;;;;;;;;4976336;28;20608;-79
2021/03/17 05:10:21;;;;;;;9.60;8.43;;;;;;;;;;4976325;28;20175;-79
2021/03/17 05:12:48;;;;;;;8.45;7.13;;;;;;;;;;4976218;28;20188;-79
2021/03/17 05:15:14;;;;;;;10.02;8.15;;;;;;;;;;4974703;28;20227;-77
2021/03/17 05:17:40;;;;;;;10.85;8.73;;;;;;;;;;4976242;28;20172;-79
2021/03/17 05:20:09;;;;;;;7.78;7.03;;;;;;;;;;4976188;28;20179;-76
2021/03/17 05:22:36;;;;;;;8.30;7.40;;;;;;;;;;4976044;28;20688;-80
2021/03/17 05:25:05;;;;;;;9.73;7.50;;;;;;;;;;4975765;28;20672;-77
2021/03/17 05:27:32;;;;;;;8.25;7.45;;;;;;;;;;4976058;28;20215;-78
2021/03/17 05:29:58;;;;;;;9.27;7.40;;;;;;;;;;4958784;28;20184;-79
2021/03/17 05:32:25;;;;;;;9.48;7.90;;;;;;;;;;4958633;28;20191;-78
2021/03/17 05:34:56;;;;;;;15.43;12.00;;;;;;;;;;4975667;28;20177;-78
2021/03/17 05:37:23;;;;;;;12.75;10.57;;;;;;;;;;4975772;28;20190;-78
2021/03/17 05:39:49;;;;;;;16.88;11.57;;;;;;;;;;4958534;28;20238;-79
2021/03/17 05:42:15;;;;;;;16.03;11.00;;;;;;;;;;4975825;28;20183;-77
2021/03/17 05:44:42;;;;;;;13.43;9.60;;;;;;;;;;4974765;28;20423;-77
2021/03/17 05:47:09;;;;;;;14.20;9.68;;;;;;;;;;4975479;28;20251;-78
2021/03/17 05:49:36;;;;;;;12.20;8.02;;;;;;;;;;4975807;28;20596;-77
2021/03/17 05:52:02;;;;;;;11.15;8.80;;;;;;;;;;4974420;28;20265;-77
2021/03/17 05:54:28;;;;;;;10.20;7.75;;;;;;;;;;4975450;28;20584;-78
2021/03/17 05:56:56;;;;;;;10.50;8.48;;;;;;;;;;4973979;28;20205;-79
2021/03/17 05:59:22;;;;;;;10.00;8.48;;;;;;;;;;4975513;28;20227;-79
2021/03/17 06:01:48;;;;;;;10.30;8.48;;;;;;;;;;4975404;28;20521;-80
2021/03/17 06:04:16;;;;;;;10.73;7.73;;;;;;;;;;4974252;28;20179;-78
2021/03/17 06:06:43;;;;;;;10.60;8.25;;;;;;;;;;4974296;28;20450;-77
2021/03/17 06:09:10;;;;;;;12.98;9.35;;;;;;;;;;4974740;28;20214;-75
2021/03/17 06:11:36;;;;;;;15.00;9.73;;;;;;;;;;4975288;28;20222;-79
2021/03/17 06:14:03;;;;;;;15.40;10.57;;;;;;;;;;4975101;28;20183;-77
2021/03/17 06:16:30;;;;;;;16.58;10.00;;;;;;;;;;4974791;28;20198;-77
2021/03/17 06:18:57;;;;;;;16.10;12.15;;;;;;;;;;4975112;28;20548;-77
2021/03/17 06:21:23;;;;;;;13.32;10.00;;;;;;;;;;4975069;28;20238;-80
2021/03/17 06:23:51;;;;;;;14.48;10.45;;;;;;;;;;4973442;28;20187;-77
2021/03/17 06:26:17;;;;;;;18.70;11.05;;;;;;;;;;4974372;28;20561;-77
2021/03/17 06:28:44;;;;;;;13.88;9.63;;;;;;;;;;4974785;28;20205;-78
2021/03/17 06:31:11;;;;;;;17.17;9.82;;;;;;;;;;4974744;28;20189;-78
2021/03/17 06:33:39;;;;;;;18.75;12.18;;;;;;;;;;4973655;28;20175;-79
2021/03/17 06:36:18;;;;;;;15.43;9.30;;;;;;;;;;4974225;28;20683;-78
2021/03/17 06:38:45;;;;;;;12.85;9.02;;;;;;;;;;4973548;28;20194;-79
2021/03/17 06:41:12;;;;;;;17.52;10.50;;;;;;;;;;4974297;28;20213;-79
2021/03/17 06:43:39;;;;;;;15.15;10.20;;;;;;;;;;4974779;28;20282;-77
2021/03/17 06:46:06;;;;;;;16.10;10.85;;;;;;;;;;4974355;28;20592;-80
2021/03/17 06:48:32;;;;;;;14.38;9.40;;;;;;;;;;4973168;28;20298;-78
2021/03/17 06:51:05;;;;;;;13.93;10.80;;;;;;;;;;4957091;28;20212;-81
2021/03/17 06:53:38;;;;;;;15.98;10.30;;;;;;;;;;4974726;28;20173;-78
2021/03/17 06:56:11;;;;;;;14.55;10.05;;;;;;;;;;4974196;28;20211;-78
2021/03/17 06:58:41;;;;;;;15.40;10.38;;;;;;;;;;4974500;28;20183;-78
2021/03/17 07:01:26;;;;;;;12.23;8.98;;;;;;;;;;4973692;28;20543;-78
2021/03/17 07:04:11;;;;;;;19.80;11.98;;;;;;;;;;4974376;28;20186;-78
2021/03/17 07:06:38;;;;;;;20.38;12.65;;;;;;;;;;4972718;28;20206;-78
2021/03/17 07:09:18;;;;;;;18.48;12.63;;;;;;;;;;4972919;28;20292;-81
2021/03/17 07:11:46;;;;;;;16.45;12.25;;;;;;;;;;4974219;28;20230;-79
2021/03/17 07:14:12;;;;;;;22.52;12.15;;;;;;;;;;4972909;28;20174;-80
2021/03/17 07:16:48;;;;;;;17.02;12.20;;;;;;;;;;4972611;28;20198;-79
2021/03/17 07:19:49;;;;;;;18.40;13.05;;;;;;;;;;4972417;28;20668;-80
2021/03/17 07:22:16;;;;;;;16.15;12.15;;;;;;;;;;4895768;29;20332;-80
2021/03/17 07:24:43;;;;;;;18.48;12.88;;;;;;;;;;4957954;28;20617;-80
2021/03/17 07:27:14;;;;;;;15.38;11.48;;;;;;;;;;4972473;28;20185;-80
2021/03/17 07:29:40;;;;;;;16.05;11.13;;;;;;;;;;4974193;28;20180;-80
2021/03/17 07:32:06;;;;;;;16.98;13.20;;;;;;;;;;4974058;28;20234;-79
2021/03/17 07:34:33;;;;;;;19.77;14.00;;;;;;;;;;4972379;28;20641;-78
2021/03/17 07:37:04;;;;;;;19.45;12.52;;;;;;;;;;4973982;28;20588;-78
2021/03/17 07:39:38;;;;;;;18.70;13.05;;;;;;;;;;4972693;28;20241;-80
2021/03/17 07:42:06;;;;;;;18.77;12.73;;;;;;;;;;4972763;28;20191;-78
2021/03/17 07:44:34;;;;;;;15.75;10.75;;;;;;;;;;4973614;28;20186;-78
2021/03/17 07:47:01;;;;;;;14.95;10.65;;;;;;;;;;4973738;28;20712;-80
2021/03/17 07:49:28;;;;;;;15.32;11.48;;;;;;;;;;4972382;28;20219;-79
2021/03/17 07:51:56;;;;;;;14.90;11.30;;;;;;;;;;4973635;28;20179;-80
2021/03/17 07:54:25;;;;;;;16.20;10.88;;;;;;;;;;4972334;28;20180;-80
2021/03/17 07:56:51;;;;;;;13.95;9.90;;;;;;;;;;4973539;28;20200;-79
2021/03/17 07:59:18;;;;;;;15.13;11.02;;;;;;;;;;4972451;28;20539;-80
2021/03/17 08:01:44;;;;;;;15.77;11.63;;;;;;;;;;4971417;28;20203;-80
2021/03/17 08:04:11;;;;;;;14.25;11.60;;;;;;;;;;4972404;28;20218;-80
2021/03/17 08:06:37;;;;;;;13.55;10.35;;;;;;;;;;4972293;28;20200;-76
2021/03/17 08:09:03;;;;;;;13.85;9.95;;;;;;;;;;4973502;28;20208;-80
2021/03/17 08:11:30;;;;;;;13.90;10.73;;;;;;;;;;4972278;28;20253;-76
2021/03/17 08:13:56;;;;;;;14.90;10.43;;;;;;;;;;4972333;28;20194;-78
2021/03/17 08:16:26;;;;;;;63.50;46.03;;;;;;;;;;4973137;28;20227;-79
2021/03/17 08:18:52;;;;;;;17.85;14.30;;;;;;;;;;4973864;28;20510;-76
2021/03/17 08:21:36;;;;;;;14.07;9.68;;;;;;;;;;4973493;28;20184;-77
2021/03/17 08:24:02;;;;;;;13.50;9.45;;;;;;;;;;4972276;28;20273;-80
2021/03/17 08:26:28;;;;;;;13.90;10.32;;;;;;;;;;4971819;28;20211;-80
2021/03/17 08:28:55;;;;;;;16.70;11.03;;;;;;;;;;4973418;28;20292;-80
2021/03/17 08:31:36;;;;;;;27.08;24.42;;;;;;;;;;4975265;28;20470;-79
2021/03/17 08:34:21;;;;;;;51.50;46.25;;;;;;;;;;4976867;28;20181;-80
2021/03/17 08:36:50;;;;;;;66.30;48.30;;;;;;;;;;4976599;28;20211;-77
2021/03/17 08:39:32;;;;;;;174.55;157.20;;;;;;;;;;4975586;28;20183;-79
2021/03/17 08:41:58;;;;;;;35.38;31.88;;;;;;;;;;4976700;28;20538;-81
2021/03/17 08:44:31;;;;;;;13.00;10.95;;;;;;;;;;4976643;28;20180;-79
2021/03/17 08:46:58;;;;;;;13.02;9.68;;;;;;;;;;4976728;28;20199;-78
2021/03/17 08:49:28;;;;;;;11.90;8.90;;;;;;;;;;4975371;28;20226;-78
2021/03/17 08:51:54;;;;;;;8.75;6.20;;;;;;;;;;4976537;28;20230;-80
2021/03/17 08:54:37;;;;;;;8.13;6.63;;;;;;;;;;4976713;28;20176;-80
2021/03/17 08:57:04;;;;;;;9.48;6.40;;;;;;;;;;4975308;28;20416;-78
2021/03/17 08:59:40;;;;;;;8.07;6.68;;;;;;;;;;4976111;28;20186;-80
2021/03/17 09:02:16;;;;;;;9.63;7.03;;;;;;;;;;4974751;28;20636;-78
2021/03/17 09:04:46;;;;;;;7.72;6.30;;;;;;;;;;4976022;28;20186;-79
2021/03/17 09:07:12;;;;;;;6.22;4.55;;;;;;;;;;4976353;28;20713;-77
2021/03/17 09:09:45;;;;;;;5.50;4.10;;;;;;;;;;4976476;28;20546;-79
2021/03/17 09:12:12;;;;;;;5.07;3.08;;;;;;;;;;4976321;28;20255;-78
2021/03/17 09:14:38;;;;;;;4.38;3.42;;;;;;;;;;4975897;28;20255;-78
2021/03/17 09:17:11;;;;;;;4.78;3.42;;;;;;;;;;4976290;28;20175;-78
2021/03/17 09:19:56;;;;;;;2.22;2.03;;;;;;;;;;4976305;28;20709;-80
2021/03/17 09:22:32;;;;;;;3.05;2.00;;;;;;;;;;4956284;28;20676;-76
2021/03/17 09:24:58;;;;;;;2.40;1.83;;;;;;;;;;4954306;28;20199;-79
2021/03/17 09:27:24;;;;;;;1.77;1.48;;;;;;;;;;4954234;29;20173;-79
2021/03/17 09:29:50;;;;;;;2.33;1.83;;;;;;;;;;4956862;29;20177;-80
2021/03/17 09:32:17;;;;;;;2.50;1.50;;;;;;;;;;4956477;29;20413;-78
2021/03/17 09:34:44;;;;;;;2.53;1.80;;;;;;;;;;4956369;28;20173;-77
2021/03/17 09:37:11;;;;;;;3.03;1.40;;;;;;;;;;4956435;29;20189;-78
2021/03/17 09:39:48;;;;;;;8.00;2.55;;;;;;;;;;4956509;29;20205;-79
2021/03/17 09:42:17;;;;;;;3.92;2.38;;;;;;;;;;4956434;28;20605;-79
2021/03/17 09:44:43;;;;;;;3.22;2.53;;;;;;;;;;4954892;28;20272;-78
2021/03/17 09:47:09;;;;;;;3.42;2.40;;;;;;;;;;4956418;29;20259;-78
2021/03/17 09:49:37;;;;;;;3.35;2.53;;;;;;;;;;4956373;29;20236;-78
2021/03/17 09:52:04;;;;;;;6.15;2.88;;;;;;;;;;4956218;29;20173;-78
2021/03/17 09:54:31;;;;;;;5.70;3.22;;;;;;;;;;4956038;29;20545;-78
2021/03/17 09:57:01;;;;;;;3.97;3.20;;;;;;;;;;4956188;28;20193;-78
2021/03/17 09:59:33;;;;;;;4.95;3.42;;;;;;;;;;4956258;29;20661;-79
2021/03/17 10:01:59;;;;;;;7.47;3.28;;;;;;;;;;4956375;29;20189;-79
2021/03/17 10:04:27;;;;;;;5.82;4.10;;;;;;;;;;4955761;29;20227;-79
2021/03/17 10:06:53;;;;;;;3.22;2.90;;;;;;;;;;4955854;28;20208;-78
2021/03/17 10:09:19;;;;;;;7.68;2.10;;;;;;;;;;4955789;29;20208;-77
2021/03/17 10:11:46;;;;;;;1.98;1.73;;;;;;;;;;4955999;29;20177;-77
2021/03/17 10:14:13;;;;;;;1.75;1.65;;;;;;;;;;4956091;29;20173;-79
2021/03/17 10:16:39;;;;;;;10.32;2.55;;;;;;;;;;4955290;28;20204;-78
2021/03/17 10:19:05;;;;;;;2.13;1.83;;;;;;;;;;4955784;29;20551;-78
2021/03/17 10:21:31;;;;;;;2.97;1.50;;;;;;;;;;4955806;29;20536;-77
2021/03/17 10:23:59;;;;;;;1.80;1.55;;;;;;;;;;4955897;29;20187;-78
2021/03/17 10:26:25;;;;;;;2.83;1.42;;;;;;;;;;4955504;28;20286;-78
2021/03/17 10:28:51;;;;;;;2.22;1.50;;;;;;;;;;4955555;29;20211;-79
2021/03/17 10:31:17;;;;;;;2.50;1.80;;;;;;;;;;4955786;29;20210;-79
2021/03/17 10:33:46;;;;;;;3.70;1.70;;;;;;;;;;4955576;29;20263;-79
2021/03/17 10:36:13;;;;;;;4.70;1.50;;;;;;;;;;4955080;28;20286;-78
2021/03/17 10:38:39;;;;;;;3.10;1.50;;;;;;;;;;4955326;29;20172;-77
2021/03/17 10:41:05;;;;;;;2.90;1.80;;;;;;;;;;4955252;29;20700;-77
2021/03/17 10:43:32;;;;;;;2.28;1.75;;;;;;;;;;4955469;29;20880;-79
2021/03/17 10:46:02;;;;;;;2.88;1.80;;;;;;;;;;4955061;28;20205;-79
2021/03/17 10:48:29;;;;;;;12.73;2.10;;;;;;;;;;4955241;28;20255;-78
2021/03/17 10:50:56;;;;;;;1.85;1.50;;;;;;;;;;4955140;28;20207;-77
2021/03/17 10:53:22;;;;;;;4.47;2.17;;;;;;;;;;4954632;28;20185;-78
2021/03/17 10:55:51;;;;;;;2.03;1.33;;;;;;;;;;4954928;28;20257;-78
2021/03/17 10:58:19;;;;;;;1.45;1.00;;;;;;;;;;4955088;29;20421;-78
2021/03/17 11:00:47;;;;;;;1.30;0.90;;;;;;;;;;4953426;29;20194;-78
2021/03/17 11:03:29;;;;;;;1.30;1.20;;;;;;;;;;4955099;29;20188;-78
2021/03/17 11:06:18;;;;;;;0.80;0.80;;;;;;;;;;4954582;28;20334;-77
2021/03/17 11:08:45;;;;;;;3.17;0.98;;;;;;;;;;4951912;29;20217;-79
2021/03/17 11:11:12;;;;;;;1.20;1.08;;;;;;;;;;4954870;29;20260;-78
2021/03/17 11:13:39;;;;;;;2.00;1.45;;;;;;;;;;4955046;29;20173;-77
2021/03/17 11:16:07;;;;;;;2.33;1.45;;;;;;;;;;4954583;28;20214;-78
2021/03/17 11:18:35;;;;;;;1.58;1.42;;;;;;;;;;4953689;29;20183;-78
2021/03/17 11:21:16;;;;;;;2.75;1.10;;;;;;;;;;4954843;29;20241;-78
2021/03/17 11:23:42;;;;;;;1.83;0.80;;;;;;;;;;4954921;29;20181;-77
2021/03/17 11:26:28;;;;;;;2.45;1.08;;;;;;;;;;4953173;28;20682;-78
2021/03/17 11:28:55;;;;;;;3.33;1.58;;;;;;;;;;4954470;29;20201;-77
2021/03/17 11:31:28;;;;;;;1.30;1.08;;;;;;;;;;4954788;29;20180;-78
2021/03/17 11:33:55;;;;;;;1.38;1.15;;;;;;;;;;4954688;29;20178;-78
2021/03/17 11:36:21;;;;;;;1.35;0.90;;;;;;;;;;4954122;28;20251;-78
2021/03/17 11:38:47;;;;;;;1.33;1.10;;;;;;;;;;4954816;29;20705;-77
2021/03/17 11:41:13;;;;;;;2.35;1.25;;;;;;;;;;4953184;29;20195;-78
2021/03/17 11:43:39;;;;;;;2.47;1.20;;;;;;;;;;4954703;29;20204;-77
2021/03/17 11:46:06;;;;;;;2.38;1.20;;;;;;;;;;4954289;28;20201;-78
2021/03/17 11:48:32;;;;;;;2.08;1.48;;;;;;;;;;4954624;29;20192;-77
2021/03/17 11:50:59;;;;;;;2.00;1.33;;;;;;;;;;4954477;29;20227;-78
2021/03/17 11:53:26;;;;;;;2.90;1.55;;;;;;;;;;4954454;29;20185;-77
2021/03/17 11:55:53;;;;;;;3.47;1.50;;;;;;;;;;4954242;28;20193;-78
2021/03/17 11:58:19;;;;;;;5.72;1.50;;;;;;;;;;4953281;29;20288;-78
2021/03/17 12:00:46;;;;;;;3.17;1.98;;;;;;;;;;4954595;29;20558;-78
2021/03/17 12:03:12;;;;;;;3.35;1.80;;;;;;;;;;4954292;29;20263;-77
2021/03/17 12:05:38;;;;;;;2.88;1.70;;;;;;;;;;4956482;28;20200;-78
2021/03/17 12:08:04;;;;;;;5.28;1.90;;;;;;;;;;4958263;29;20577;-78
2021/03/17 12:10:31;;;;;;;1.83;1.45;;;;;;;;;;4958108;29;20259;-78
2021/03/17 12:12:57;;;;;;;4.68;1.80;;;;;;;;;;4956646;29;20192;-78
2021/03/17 12:15:25;;;;;;;3.53;1.90;;;;;;;;;;4957780;28;20193;-78
2021/03/17 12:17:51;;;;;;;2.03;1.80;;;;;;;;;;4958005;29;20185;-78
2021/03/17 12:20:18;;;;;;;3.10;1.65;;;;;;;;;;4958144;29;20181;-78
2021/03/17 12:22:44;;;;;;;7.70;2.00;;;;;;;;;;4958060;29;20275;-78
2021/03/17 12:25:11;;;;;;;2.95;1.88;;;;;;;;;;4957525;28;20209;-78
2021/03/17 12:27:38;;;;;;;4.57;1.80;;;;;;;;;;4957843;29;20212;-78
2021/03/17 12:30:05;;;;;;;2.38;1.60;;;;;;;;;;4957720;29;20179;-78
2021/03/17 12:32:31;;;;;;;2.17;1.70;;;;;;;;;;4957873;29;20256;-78
2021/03/17 12:34:57;;;;;;;3.93;1.70;;;;;;;;;;4957450;28;20205;-78
2021/03/17 12:37:23;;;;;;;2.00;1.60;;;;;;;;;;4957565;29;20929;-78
2021/03/17 12:39:49;;;;;;;3.10;2.13;;;;;;;;;;4957719;29;20483;-78
2021/03/17 12:42:15;;;;;;;2.28;1.75;;;;;;;;;;4957819;29;20456;-78
2021/03/17 12:44:41;;;;;;;9.90;2.55;;;;;;;;;;4957468;28;20223;-78
2021/03/17 12:47:08;;;;;;;3.93;2.20;;;;;;;;;;4957557;29;20185;-78
2021/03/17 12:49:35;;;;;;;4.85;2.40;;;;;;;;;;4957368;28;20901;-78
2021/03/17 12:52:01;;;;;;;3.58;2.40;;;;;;;;;;4956388;29;20169;-78
2021/03/17 12:54:26;;;;;;;6.95;2.47;;;;;;;;;;4957297;29;20283;-79
2021/03/17 12:56:53;;;;;;;7.00;2.03;;;;;;;;;;4957160;28;20291;-78
2021/03/17 12:59:19;;;;;;;13.38;2.20;;;;;;;;;;4957235;29;20463;-77
2021/03/17 13:01:44;;;;;;;2.38;1.38;;;;;;;;;;4957076;29;20192;-78
2021/03/17 13:04:11;;;;;;;3.60;2.70;;;;;;;;;;4957316;29;20513;-77
2021/03/17 13:06:39;;;;;;;5.20;1.90;;;;;;;;;;4956959;28;20463;-79
2021/03/17 13:09:05;;;;;;;9.07;2.67;;;;;;;;;;4957100;28;20291;-78
2021/03/17 13:11:32;;;;;;;5.22;1.70;;;;;;;;;;4956988;29;20572;-77
2021/03/17 13:13:58;;;;;;;8.63;1.80;;;;;;;;;;4956991;29;20184;-78
2021/03/17 13:16:24;;;;;;;4.78;2.50;;;;;;;;;;4954746;28;20212;-77
2021/03/17 13:18:50;;;;;;;3.22;2.17;;;;;;;;;;4956893;29;20177;-78
2021/03/17 13:21:16;;;;;;;3.25;2.00;;;;;;;;;;4956954;29;20203;-78
2021/03/17 13:23:42;;;;;;;4.73;2.00;;;;;;;;;;4956740;29;20181;-78
2021/03/17 13:26:08;;;;;;;4.40;2.75;;;;;;;;;;4956508;28;20475;-78
2021/03/17 13:28:35;;;;;;;9.00;2.50;;;;;;;;;;4956792;29;20216;-78
2021/03/17 13:31:01;;;;;;;5.93;2.67;;;;;;;;;;4955574;29;20661;-78
2021/03/17 13:33:27;;;;;;;5.28;2.60;;;;;;;;;;4956819;29;20179;-78
2021/03/17 13:35:53;;;;;;;7.40;2.70;;;;;;;;;;4955973;28;20575;-77
2021/03/17 13:38:19;;;;;;;4.78;2.35;;;;;;;;;;4956695;29;20428;-78
2021/03/17 13:40:47;;;;;;;4.75;2.10;;;;;;;;;;4956592;29;20599;-76
2021/03/17 13:43:13;;;;;;;3.97;2.40;;;;;;;;;;4956505;29;20172;-78
2021/03/17 13:45:40;;;;;;;4.28;2.33;;;;;;;;;;4956112;28;20623;-77
2021/03/17 13:48:07;;;;;;;6.55;1.90;;;;;;;;;;4956268;28;20212;-78
2021/03/17 13:50:33;;;;;;;2.65;2.10;;;;;;;;;;4956200;29;20173;-77
2021/03/17 13:52:59;;;;;;;3.15;2.33;;;;;;;;;;4956404;29;20185;-78
2021/03/17 13:55:25;;;;;;;8.63;2.30;;;;;;;;;;4955936;28;20211;-77
2021/03/17 13:57:52;;;;;;;5.13;1.85;;;;;;;;;;4956141;29;20181;-77
2021/03/17 14:00:19;;;;;;;7.10;2.00;;;;;;;;;;4956146;29;20182;-79
2021/03/17 14:02:45;;;;;;;4.93;1.40;;;;;;;;;;4956227;29;20545;-78
2021/03/17 14:05:11;;;;;;;3.97;1.80;;;;;;;;;;4955551;28;20268;-78
2021/03/17 14:07:38;;;;;;;4.22;1.77;;;;;;;;;;4955952;29;20212;-77
2021/03/17 14:10:08;;;;;;;3.72;1.80;;;;;;;;;;4955927;29;20601;-78
2021/03/17 14:12:34;;;;;;;8.60;2.10;;;;;;;;;;4956046;29;20269;-78
2021/03/17 14:15:00;;;;;;;4.80;2.15;;;;;;;;;;4968774;28;20601;-78
2021/03/17 14:17:26;;;;;;;3.47;1.50;;;;;;;;;;4975426;28;20212;-77
2021/03/17 14:19:52;;;;;;;5.07;1.67;;;;;;;;;;4973704;28;20223;-77
2021/03/17 14:22:18;;;;;;;4.20;2.25;;;;;;;;;;4972935;28;20408;-78
2021/03/17 14:24:44;;;;;;;4.43;1.65;;;;;;;;;;4974353;28;20260;-78
2021/03/17 14:27:11;;;;;;;2.42;1.40;;;;;;;;;;4974967;28;20255;-77
2021/03/17 14:29:37;;;;;;;5.63;1.75;;;;;;;;;;4973593;28;20565;-78
2021/03/17 14:32:03;;;;;;;5.97;1.95;;;;;;;;;;4975137;28;20179;-78
2021/03/17 14:34:29;;;;;;;5.88;2.03;;;;;;;;;;4974704;28;20180;-77
2021/03/17 14:36:55;;;;;;;7.05;1.70;;;;;;;;;;4974616;28;20214;-78
2021/03/17 14:39:21;;;;;;;2.57;1.60;;;;;;;;;;4973210;28;20199;-78
2021/03/17 14:41:47;;;;;;;4.70;1.70;;;;;;;;;;4973366;28;20428;-78